sensor_id;sensor_type;location;lat;lon;timestamp;temperature;humidity
21417;DHT22;10869;52.238;10.716;2023-06-19T03:10:31;22.20;78.40
21417;DHT22;10869;52.238;10.716;2023-06-19T03:12:57;22.20;77.70
21417;DHT22;10869;52.238;10.716;2023-06-19T03:15:27;22.20;77.80
21417;DHT22;10869;52.238;10.716;2023-06-19T03:17:53;22.20;77.80
21417;DHT22;10869;52.238;10.716;2023-06-19T03:20:19;22.30;77.90
21417;DHT22;10869;52.238;10.716;2023-06-19T03:22:46;22.30;77.80
21417;DHT22;10869;52.238;10.716;2023-06-19T03:25:12;22.30;77.80
21417;DHT22;10869;52.238;10.716;2023-06-19T03:27:38;22.20;77.50
21417;DHT22;10869;52.238;10.716;2023-06-19T03:30:04;22.30;77.80
21417;DHT22;10869;52.238;10.716;2023-06-19T03:32:34;22.30;77.60
21417;DHT22;10869;52.238;10.716;2023-06-19T03:35:01;22.30;77.70
21417;DHT22;10869;52.238;10.716;2023-06-19T03:37:27;22.30;77.50
21417;DHT22;10869;52.238;10.716;2023-06-19T03:39:53;22.30;77.00
21417;DHT22;10869;52.238;10.716;2023-06-19T03:42:19;22.30;77.20
21417;DHT22;10869;52.238;10.716;2023-06-19T03:44:44;22.30;77.00
21417;DHT22;10869;52.238;10.716;2023-06-19T03:47:10;22.40;77.30
21417;DHT22;10869;52.238;10.716;2023-06-19T03:49:36;22.30;77.40
21417;DHT22;10869;52.238;10.716;2023-06-19T03:52:02;22.30;77.40
21417;DHT22;10869;52.238;10.716;2023-06-19T03:54:27;22.30;77.50
21417;DHT22;10869;52.238;10.716;2023-06-19T03:56:53;22.30;77.50
21417;DHT22;10869;52.238;10.716;2023-06-19T03:59:19;22.30;77.60
21417;DHT22;10869;52.238;10.716;2023-06-19T04:01:44;22.30;77.90
21417;DHT22;10869;52.238;10.716;2023-06-19T04:04:10;22.20;77.60
21417;DHT22;10869;52.238;10.716;2023-06-19T04:06:36;22.20;77.70
21417;DHT22;10869;52.238;10.716;2023-06-19T04:09:02;22.20;77.70
21417;DHT22;10869;52.238;10.716;2023-06-19T04:11:28;22.20;78.10
21417;DHT22;10869;52.238;10.716;2023-06-19T04:13:53;22.20;78.30
21417;DHT22;10869;52.238;10.716;2023-06-19T04:16:19;22.20;79.80
21417;DHT22;10869;52.238;10.716;2023-06-19T04:18:45;22.10;83.50
21417;DHT22;10869;52.238;10.716;2023-06-19T04:21:11;21.90;85.20
21417;DHT22;10869;52.238;10.716;2023-06-19T04:23:37;21.70;86.40
21417;DHT22;10869;52.238;10.716;2023-06-19T04:26:03;21.50;87.30
21417;DHT22;10869;52.238;10.716;2023-06-19T04:28:28;21.40;87.00
21417;DHT22;10869;52.238;10.716;2023-06-19T04:30:54;21.30;86.60
21417;DHT22;10869;52.238;10.716;2023-06-19T04:36:08;21.20;86.30
21417;DHT22;10869;52.238;10.716;2023-06-19T04:38:35;21.20;85.90
21417;DHT22;10869;52.238;10.716;2023-06-19T04:49:46;21.30;84.20
21417;DHT22;10869;52.238;10.716;2023-06-19T04:52:19;21.30;84.70
21417;DHT22;10869;52.238;10.716;2023-06-19T04:54:52;21.30;84.50
21417;DHT22;10869;52.238;10.716;2023-06-19T04:57:20;21.40;84.10
21417;DHT22;10869;52.238;10.716;2023-06-19T04:59:56;21.40;83.90
21417;DHT22;10869;52.238;10.716;2023-06-19T05:05:47;21.50;83.20
21417;DHT22;10869;52.238;10.716;2023-06-19T05:08:13;21.50;83.50
21417;DHT22;10869;52.238;10.716;2023-06-19T05:10:39;21.50;83.40
21417;DHT22;10869;52.238;10.716;2023-06-19T05:13:09;21.50;83.30
21417;DHT22;10869;52.238;10.716;2023-06-19T05:15:39;21.60;83.30
21417;DHT22;10869;52.238;10.716;2023-06-19T05:18:05;21.60;83.60
21417;DHT22;10869;52.238;10.716;2023-06-19T05:20:31;21.60;84.10
21417;DHT22;10869;52.238;10.716;2023-06-19T05:22:57;21.60;84.50
21417;DHT22;10869;52.238;10.716;2023-06-19T05:25:24;21.60;85.50
21417;DHT22;10869;52.238;10.716;2023-06-19T05:27:52;21.60;87.10
21417;DHT22;10869;52.238;10.716;2023-06-19T05:30:18;21.50;88.40
21417;DHT22;10869;52.238;10.716;2023-06-19T05:32:43;21.40;88.90
21417;DHT22;10869;52.238;10.716;2023-06-19T05:35:09;21.30;89.20
21417;DHT22;10869;52.238;10.716;2023-06-19T05:37:35;21.30;88.80
21417;DHT22;10869;52.238;10.716;2023-06-19T05:43:15;21.30;88.10
21417;DHT22;10869;52.238;10.716;2023-06-19T05:45:50;21.30;87.80
21417;DHT22;10869;52.238;10.716;2023-06-19T05:51:41;21.30;87.70
21417;DHT22;10869;52.238;10.716;2023-06-19T05:54:07;21.30;87.20
21417;DHT22;10869;52.238;10.716;2023-06-19T05:59:54;21.30;88.10
21417;DHT22;10869;52.238;10.716;2023-06-19T06:05:42;21.20;91.70
21417;DHT22;10869;52.238;10.716;2023-06-19T06:08:08;21.10;92.60
21417;DHT22;10869;52.238;10.716;2023-06-19T06:10:35;21.00;92.60
21417;DHT22;10869;52.238;10.716;2023-06-19T06:13:00;21.00;93.90
21417;DHT22;10869;52.238;10.716;2023-06-19T06:15:26;20.90;94.90
21417;DHT22;10869;52.238;10.716;2023-06-19T06:21:14;20.90;95.80
21417;DHT22;10869;52.238;10.716;2023-06-19T06:23:41;20.80;95.40
21417;DHT22;10869;52.238;10.716;2023-06-19T06:26:07;20.90;95.40
21417;DHT22;10869;52.238;10.716;2023-06-19T06:28:32;20.90;95.80
21417;DHT22;10869;52.238;10.716;2023-06-19T06:30:58;21.00;95.80
21417;DHT22;10869;52.238;10.716;2023-06-19T06:33:24;21.00;95.30
21417;DHT22;10869;52.238;10.716;2023-06-19T06:39:12;20.90;95.90
21417;DHT22;10869;52.238;10.716;2023-06-19T06:41:37;20.80;96.60
21417;DHT22;10869;52.238;10.716;2023-06-19T06:47:25;20.80;96.30
21417;DHT22;10869;52.238;10.716;2023-06-19T06:49:51;20.80;96.30
21417;DHT22;10869;52.238;10.716;2023-06-19T06:52:16;20.90;96.50
21417;DHT22;10869;52.238;10.716;2023-06-19T06:54:42;21.00;96.50
21417;DHT22;10869;52.238;10.716;2023-06-19T06:57:11;21.00;96.40
21417;DHT22;10869;52.238;10.716;2023-06-19T06:59:53;21.00;96.10
21417;DHT22;10869;52.238;10.716;2023-06-19T07:02:19;21.20;95.80
21417;DHT22;10869;52.238;10.716;2023-06-19T07:04:55;21.20;95.70
21417;DHT22;10869;52.238;10.716;2023-06-19T07:07:21;21.40;95.60
21417;DHT22;10869;52.238;10.716;2023-06-19T07:09:46;21.60;96.10
21417;DHT22;10869;52.238;10.716;2023-06-19T07:12:12;21.70;96.60
21417;DHT22;10869;52.238;10.716;2023-06-19T07:14:38;21.90;96.70
21417;DHT22;10869;52.238;10.716;2023-06-19T07:17:04;22.10;96.70
21417;DHT22;10869;52.238;10.716;2023-06-19T07:19:32;22.30;97.30
21417;DHT22;10869;52.238;10.716;2023-06-19T07:21:58;22.40;97.40
21417;DHT22;10869;52.238;10.716;2023-06-19T07:24:24;22.50;97.10
21417;DHT22;10869;52.238;10.716;2023-06-19T07:30:06;22.90;96.80
21417;DHT22;10869;52.238;10.716;2023-06-19T07:32:31;23.00;96.30
21417;DHT22;10869;52.238;10.716;2023-06-19T07:34:57;23.10;96.70
21417;DHT22;10869;52.238;10.716;2023-06-19T07:37:23;23.20;96.60
21417;DHT22;10869;52.238;10.716;2023-06-19T07:39:50;23.20;96.00
21417;DHT22;10869;52.238;10.716;2023-06-19T07:42:18;23.40;96.40
21417;DHT22;10869;52.238;10.716;2023-06-19T07:44:45;23.40;96.30
21417;DHT22;10869;52.238;10.716;2023-06-19T07:47:11;23.60;95.80
21417;DHT22;10869;52.238;10.716;2023-06-19T07:49:37;23.60;96.40
21417;DHT22;10869;52.238;10.716;2023-06-19T07:52:04;23.80;96.80
21417;DHT22;10869;52.238;10.716;2023-06-19T07:54:30;24.10;96.80
21417;DHT22;10869;52.238;10.716;2023-06-19T07:56:56;24.40;96.40
21417;DHT22;10869;52.238;10.716;2023-06-19T07:59:22;24.60;96.30
21417;DHT22;10869;52.238;10.716;2023-06-19T08:01:48;25.00;95.10
21417;DHT22;10869;52.238;10.716;2023-06-19T08:11:31;25.20;91.60
21417;DHT22;10869;52.238;10.716;2023-06-19T08:14:27;25.30;91.20
21417;DHT22;10869;52.238;10.716;2023-06-19T08:16:54;25.50;91.10
21417;DHT22;10869;52.238;10.716;2023-06-19T08:32:23;26.40;89.20
21417;DHT22;10869;52.238;10.716;2023-06-19T08:34:48;26.60;87.30
21417;DHT22;10869;52.238;10.716;2023-06-19T08:37:14;26.80;86.20
21417;DHT22;10869;52.238;10.716;2023-06-19T08:57:58;27.70;83.10
21417;DHT22;10869;52.238;10.716;2023-06-19T09:00:28;27.70;81.70
21417;DHT22;10869;52.238;10.716;2023-06-19T10:01:31;28.10;75.20
21417;DHT22;10869;52.238;10.716;2023-06-19T10:04:08;28.00;74.60
21417;DHT22;10869;52.238;10.716;2023-06-19T10:06:44;28.10;75.30
21417;DHT22;10869;52.238;10.716;2023-06-19T10:09:10;28.30;75.20
21417;DHT22;10869;52.238;10.716;2023-06-19T10:11:51;28.50;76.00
21417;DHT22;10869;52.238;10.716;2023-06-19T10:14:21;28.70;75.60
21417;DHT22;10869;52.238;10.716;2023-06-19T10:16:51;28.90;76.00
21417;DHT22;10869;52.238;10.716;2023-06-19T10:19:20;29.10;73.70
21417;DHT22;10869;52.238;10.716;2023-06-19T10:32:55;29.70;74.10
21417;DHT22;10869;52.238;10.716;2023-06-19T10:35:21;29.70;75.70
21417;DHT22;10869;52.238;10.716;2023-06-19T11:08:51;29.40;79.30
21417;DHT22;10869;52.238;10.716;2023-06-19T11:11:20;29.60;78.50
21417;DHT22;10869;52.238;10.716;2023-06-19T11:13:46;29.70;76.10
21417;DHT22;10869;52.238;10.716;2023-06-19T11:49:58;29.70;78.50
21417;DHT22;10869;52.238;10.716;2023-06-19T11:52:33;29.80;80.70
21417;DHT22;10869;52.238;10.716;2023-06-19T14:40:48;31.00;80.70
21417;DHT22;10869;52.238;10.716;2023-06-19T16:50:57;27.70;85.00
21417;DHT22;10869;52.238;10.716;2023-06-19T16:57:05;27.50;85.00
21417;DHT22;10869;52.238;10.716;2023-06-19T16:59:38;27.30;86.60
21417;DHT22;10869;52.238;10.716;2023-06-19T17:10:07;26.60;87.90
21417;DHT22;10869;52.238;10.716;2023-06-19T17:12:38;26.50;89.10
21417;DHT22;10869;52.238;10.716;2023-06-19T17:18:40;26.40;89.00
21417;DHT22;10869;52.238;10.716;2023-06-19T17:54:46;25.70;90.30
21417;DHT22;10869;52.238;10.716;2023-06-19T18:00:37;25.60;91.20
21417;DHT22;10869;52.238;10.716;2023-06-19T18:06:26;25.40;91.60
21417;DHT22;10869;52.238;10.716;2023-06-19T18:08:52;25.30;91.80
21417;DHT22;10869;52.238;10.716;2023-06-19T18:11:20;25.10;92.30
21417;DHT22;10869;52.238;10.716;2023-06-19T18:13:46;25.10;92.20
21417;DHT22;10869;52.238;10.716;2023-06-19T18:16:12;25.00;91.90
21417;DHT22;10869;52.238;10.716;2023-06-19T18:18:38;25.00;91.90
21417;DHT22;10869;52.238;10.716;2023-06-19T18:21:04;24.90;92.10
21417;DHT22;10869;52.238;10.716;2023-06-19T18:23:30;24.90;92.30
21417;DHT22;10869;52.238;10.716;2023-06-19T18:29:12;24.80;92.00
21417;DHT22;10869;52.238;10.716;2023-06-19T18:31:38;24.70;92.60
21417;DHT22;10869;52.238;10.716;2023-06-19T18:34:03;24.70;92.40
21417;DHT22;10869;52.238;10.716;2023-06-19T18:36:29;24.60;92.50
21417;DHT22;10869;52.238;10.716;2023-06-19T18:38:55;24.60;92.60
21417;DHT22;10869;52.238;10.716;2023-06-19T18:41:20;24.50;92.50
21417;DHT22;10869;52.238;10.716;2023-06-19T18:43:46;24.40;92.40
21417;DHT22;10869;52.238;10.716;2023-06-19T18:46:12;24.40;92.60
21417;DHT22;10869;52.238;10.716;2023-06-19T18:48:38;24.30;92.50
21417;DHT22;10869;52.238;10.716;2023-06-19T18:51:03;24.30;92.60
21417;DHT22;10869;52.238;10.716;2023-06-19T18:53:29;24.20;92.70
21417;DHT22;10869;52.238;10.716;2023-06-19T18:55:55;24.10;92.10
21417;DHT22;10869;52.238;10.716;2023-06-19T18:58:21;24.10;92.20
21417;DHT22;10869;52.238;10.716;2023-06-19T19:00:47;24.10;92.30
21417;DHT22;10869;52.238;10.716;2023-06-19T19:03:13;24.00;92.70
21417;DHT22;10869;52.238;10.716;2023-06-19T19:09:02;23.80;92.50
21417;DHT22;10869;52.238;10.716;2023-06-19T19:14:49;23.60;92.80
21417;DHT22;10869;52.238;10.716;2023-06-19T19:17:15;23.50;92.80
21417;DHT22;10869;52.238;10.716;2023-06-19T19:19:41;23.40;93.20
21417;DHT22;10869;52.238;10.716;2023-06-19T19:22:07;23.30;93.30
21417;DHT22;10869;52.238;10.716;2023-06-19T19:24:33;23.10;93.60
21417;DHT22;10869;52.238;10.716;2023-06-19T19:26:58;23.00;93.90
21417;DHT22;10869;52.238;10.716;2023-06-19T19:29:24;22.90;94.10
21417;DHT22;10869;52.238;10.716;2023-06-19T19:31:50;22.80;94.30
21417;DHT22;10869;52.238;10.716;2023-06-19T19:34:16;22.70;94.70
21417;DHT22;10869;52.238;10.716;2023-06-19T19:36:47;22.60;94.90
21417;DHT22;10869;52.238;10.716;2023-06-19T20:02:57;21.40;96.80
21417;DHT22;10869;52.238;10.716;2023-06-19T20:08:50;21.20;97.00
21417;DHT22;10869;52.238;10.716;2023-06-19T20:11:22;21.10;97.50
21417;DHT22;10869;52.238;10.716;2023-06-19T20:13:58;20.90;97.60
21417;DHT22;10869;52.238;10.716;2023-06-19T20:16:39;20.80;97.90
21417;DHT22;10869;52.238;10.716;2023-06-19T20:26:20;20.50;98.50
21417;DHT22;10869;52.238;10.716;2023-06-19T21:26:52;19.70;99.90
21417;DHT22;10869;52.238;10.716;2023-06-19T21:29:18;19.70;99.90
21417;DHT22;10869;52.238;10.716;2023-06-19T21:31:44;19.70;99.90
21417;DHT22;10869;52.238;10.716;2023-06-19T21:34:10;19.70;99.90
21417;DHT22;10869;52.238;10.716;2023-06-19T21:36:36;19.70;99.90
21417;DHT22;10869;52.238;10.716;2023-06-19T21:39:01;19.70;99.90
21417;DHT22;10869;52.238;10.716;2023-06-19T21:44:50;19.60;99.90
21417;DHT22;10869;52.238;10.716;2023-06-19T21:47:16;19.60;99.90
21417;DHT22;10869;52.238;10.716;2023-06-19T21:49:41;19.60;99.90
21417;DHT22;10869;52.238;10.716;2023-06-19T21:52:07;19.60;99.90
21417;DHT22;10869;52.238;10.716;2023-06-19T21:54:33;19.60;99.90
21417;DHT22;10869;52.238;10.716;2023-06-19T21:56:59;19.60;99.90
21417;DHT22;10869;52.238;10.716;2023-06-19T21:59:25;19.60;99.90
21417;DHT22;10869;52.238;10.716;2023-06-19T22:01:50;19.50;99.90
21417;DHT22;10869;52.238;10.716;2023-06-19T22:04:16;19.50;99.90
21417;DHT22;10869;52.238;10.716;2023-06-19T22:06:42;19.40;99.90
21417;DHT22;10869;52.238;10.716;2023-06-19T22:09:08;19.40;99.90
21417;DHT22;10869;52.238;10.716;2023-06-19T22:11:34;19.30;99.90
21417;DHT22;10869;52.238;10.716;2023-06-19T22:14:00;19.20;99.90
21417;DHT22;10869;52.238;10.716;2023-06-19T22:16:26;19.20;99.90
21417;DHT22;10869;52.238;10.716;2023-06-19T22:18:52;19.20;99.90
21417;DHT22;10869;52.238;10.716;2023-06-19T22:21:18;19.20;99.90
21417;DHT22;10869;52.238;10.716;2023-06-19T22:23:44;19.10;99.90
21417;DHT22;10869;52.238;10.716;2023-06-19T22:26:10;19.20;99.90
21417;DHT22;10869;52.238;10.716;2023-06-19T22:28:36;19.20;99.90
21417;DHT22;10869;52.238;10.716;2023-06-19T22:31:02;19.20;99.90
21417;DHT22;10869;52.238;10.716;2023-06-19T22:33:28;19.30;99.90
21417;DHT22;10869;52.238;10.716;2023-06-19T22:35:53;19.30;99.90
21417;DHT22;10869;52.238;10.716;2023-06-19T22:38:19;19.40;99.90
21417;DHT22;10869;52.238;10.716;2023-06-19T22:40:45;19.40;99.90
21417;DHT22;10869;52.238;10.716;2023-06-19T22:43:11;19.40;99.90
21417;DHT22;10869;52.238;10.716;2023-06-19T22:45:37;19.40;99.90
21417;DHT22;10869;52.238;10.716;2023-06-19T22:48:03;19.40;99.90
21417;DHT22;10869;52.238;10.716;2023-06-19T22:50:29;19.50;99.90
21417;DHT22;10869;52.238;10.716;2023-06-19T22:52:55;19.50;99.90
21417;DHT22;10869;52.238;10.716;2023-06-19T22:55:21;19.50;99.90
21417;DHT22;10869;52.238;10.716;2023-06-19T22:57:47;19.50;99.90
